Latest Weather Observations for Williamtown

IDN60801

Issued at 7:32 pm EST Sunday 20 August 2017 (issued every 30 minutes, with the page automatically refreshed every 10 minutes)

About weather observations | Map of weather stations | Latest weather observations for NSW | Other Formats
Station Details ID: 061078 Name: WILLIAMTOWN RAAF Lat: -32.79 Lon: 151.84 Height: 7.5 m
Data from the previous 72 hours. | See also: Recent months at Williamtown
Date/Time
EST
Temp
°C
App
Temp
°C
Dew
Point
°C
Rel
Hum
%
Delta-T
°C
Wind Press
QNH
hPa
Press
MSL
hPa
Rain since
9am
mm
Dir  Spd
km/h
Gust
km/h
Spd
kts
Gust
kts
20/07:30pm 11.2 8.4 10.0 92 0.6 WSW 15 19 8 10 1021.5 1021.5 3.0
20/07:00pm 11.0 8.9 9.9 93 0.6 SW 11 15 6 8 1021.6 1021.6 3.0
20/06:58pm 11.0 8.6 9.9 93 0.6 SW 13 15 7 8 1021.6 1021.6 3.0
20/06:47pm 11.2 9.2 10.1 93 0.6 SSW 11 13 6 7 1021.6 1021.6 3.0
20/06:30pm 11.0 8.9 9.9 93 0.6 WSW 11 13 6 7 1021.6 1021.6 3.0
20/06:00pm 11.0 8.6 10.1 94 0.5 WSW 13 17 7 9 1021.3 1021.3 3.0
20/05:30pm 11.5 11.7 10.7 95 0.4 CALM 0 0 0 0 1021.2 1021.2 3.0
20/05:00pm 11.6 9.8 10.7 94 0.5 WSW 11 13 6 7 1021.2 1021.2 3.0
20/04:45pm 11.7 9.4 10.6 93 0.6 WSW 13 17 7 9 1021.3 1021.3 2.6
20/04:31pm 11.5 9.1 10.2 92 0.7 SSW 13 19 7 10 1021.4 1021.4 2.6
20/04:30pm 11.6 9.3 10.3 92 0.7 SSW 13 19 7 10 1021.4 1021.4 2.6
20/04:00pm 12.6 10.8 11.0 90 0.8 WSW 11 15 6 8 1021.2 1021.2 1.8
20/03:30pm 12.3 8.9 10.7 90 0.8 WSW 19 28 10 15 1021.4 1021.4 1.8
20/03:14pm 12.1 8.9 11.2 94 0.5 SW 19 26 10 14 1021.3 1021.3 1.8
20/03:00pm 11.8 7.2 10.9 94 0.5 SSW 26 39 14 21 1021.5 1021.5 1.6
20/02:49pm 12.0 6.8 10.4 90 0.8 SSW 28 41 15 22 1021.4 1021.4 1.0
20/02:30pm 13.4 9.2 9.8 79 1.8 SW 22 35 12 19 1021.3 1021.3 0.6
20/02:00pm 12.9 8.2 10.8 87 1.1 SW 26 33 14 18 1021.5 1021.5 0.6
20/01:55pm 12.1 6.9 10.3 89 0.9 SW 28 33 15 18 1021.5 1021.5 0.6
20/01:39pm 12.2 8.2 10.4 89 0.9 SSW 22 32 12 17 1021.7 1021.7 0.6
20/01:30pm 12.7 8.9 9.9 83 1.4 SSW 20 32 11 17 1021.5 1021.5 0.0
20/01:00pm 13.3 6.6 8.2 71 2.5 SSW 33 50 18 27 1021.8 1021.8 0.0
20/12:53pm 14.3 8.0 7.4 63 3.4 SSW 30 50 16 27 1021.5 1021.5 0.0
20/12:30pm 14.3 8.3 6.9 61 3.6 SSW 28 44 15 24 1022.0 1022.0 0.0
20/12:15pm 14.2 7.8 6.8 61 3.6 SSW 30 48 16 26 1022.0 1022.0 0.0
20/12:00pm 14.1 8.3 6.2 59 3.8 SSW 26 37 14 20 1022.2 1022.2 0.0
20/11:30am 14.1 9.2 5.2 55 4.2 SW 20 28 11 15 1022.8 1022.8 0.0
20/11:00am 12.9 7.5 4.6 57 3.8 SW 22 32 12 17 1023.3 1023.3 0.0
20/10:30am 13.0 8.2 4.4 56 3.9 SW 19 26 10 14 1023.7 1023.7 0.0
20/10:00am 12.4 7.3 2.8 52 4.2 WSW 19 26 10 14 1023.6 1023.6 0.0
20/09:30am 11.8 6.4 2.3 52 4.1 WSW 20 30 11 16 1023.7 1023.7 0.0
20/09:00am 11.0 5.4 1.5 52 4.0 WSW 20 33 11 18 1023.9 1023.9 2.4
20/08:30am 9.6 4.2 1.0 55 3.5 W 19 26 10 14 1023.5 1023.5 2.4
20/08:00am 8.5 3.2 -0.3 54 3.4 WNW 17 24 9 13 1023.4 1023.4 2.4
20/07:30am 7.3 2.1 0.3 61 2.8 WNW 17 20 9 11 1023.1 1023.1 2.4
20/07:00am 6.1 0.9 0.0 65 2.3 WNW 17 19 9 10 1022.8 1022.8 2.4
20/06:30am 6.0 0.8 0.1 66 2.3 WNW 17 22 9 12 1022.5 1022.5 2.4
20/06:00am 6.0 0.9 0.6 68 2.1 WNW 17 20 9 11 1022.4 1022.4 2.4
20/05:30am 5.6 0.5 1.0 72 1.8 WNW 17 19 9 10 1022.1 1022.1 2.4
20/05:00am 7.2 1.9 -0.7 57 3.0 W 17 22 9 12 1021.6 1021.6 2.4
20/04:30am 7.4 2.5 -0.5 57 3.0 WSW 15 19 8 10 1021.2 1021.2 2.4
20/04:00am 7.8 2.2 0.1 58 3.0 WSW 19 26 10 14 1021.0 1021.0 2.4
20/03:30am 8.0 2.4 1.0 61 2.8 WSW 20 30 11 16 1020.6 1020.6 2.4
20/03:00am 7.9 2.6 2.0 66 2.4 W 19 26 10 14 1020.7 1020.7 2.4
20/02:30am 8.1 3.2 2.1 66 2.5 W 17 20 9 11 1020.8 1020.8 2.4
20/02:00am 8.3 3.6 3.4 71 2.1 W 17 20 9 11 1020.8 1020.8 2.4
20/01:30am 8.1 3.6 4.3 77 1.7 W 17 24 9 13 1020.8 1020.8 2.4
20/01:00am 8.6 4.4 5.7 82 1.3 WNW 17 20 9 11 1020.8 1020.8 2.4
20/12:30am 8.4 4.4 6.5 88 0.9 WNW 17 19 9 10 1020.8 1020.8 2.4
20/12:00am 8.8 4.8 6.6 86 1.0 W 17 20 9 11 1020.6 1020.6 2.4
 
Date/Time
EST
Temp
°C
App
Temp
°C
Dew
Point
°C
Rel
Hum
%
Delta-T
°C
Wind Press
QNH
hPa
Press
MSL
hPa
Rain since
9am
mm
Dir  Spd
km/h
Gust
km/h
Spd
kts
Gust
kts
19/11:30pm 9.9 4.3 7.3 84 1.2 SSW 26 44 14 24 1021.2 1021.2 2.2
19/11:00pm 9.9 4.6 6.6 80 1.5 SW 24 43 13 23 1021.1 1021.1 1.6
19/10:59pm 9.8 4.9 6.7 81 1.5 SW 22 43 12 23 1021.1 1021.1 1.6
19/10:30pm 9.3 5.0 5.3 76 1.8 WSW 17 30 9 16 1020.8 1020.8 0.4
19/10:00pm 9.5 4.0 5.9 78 1.6 SW 24 44 13 24 1021.4 1021.4 0.4
19/09:30pm 9.7 0.4 5.9 77 1.7 SW 44 74 24 40 1020.8 1020.8 0.0
19/09:27pm 10.1 1.0 5.7 74 2.0 SW 43 74 23 40 1021.0 1021.0 0.0
19/09:02pm 11.5 4.7 3.0 56 3.7 SW 28 54 15 29 1020.6 1020.6 0.0
19/09:00pm 11.8 5.9 4.1 59 3.4 WSW 24 37 13 20 1020.6 1020.6 0.0
19/08:30pm 11.8 6.6 3.8 58 3.6 WSW 20 30 11 16 1020.0 1020.0 0.0
19/08:00pm 13.0 6.4 4.4 56 3.9 SW 28 46 15 25 1019.9 1019.9 0.0
19/07:39pm 13.4 6.3 3.8 52 4.3 SSW 30 48 16 26 1019.6 1019.6 0.0
19/07:30pm 13.3 5.9 3.9 53 4.3 SSW 32 43 17 23 1019.7 1019.7 0.0
19/07:00pm 13.5 6.0 3.3 50 4.5 SSW 32 50 17 27 1019.4 1019.4 0.0
19/06:33pm 13.7 5.9 2.6 47 4.9 SSW 33 52 18 28 1019.3 1019.3 0.0
19/06:30pm 13.3 6.2 3.7 52 4.3 SSW 30 44 16 24 1019.3 1019.3 0.0
19/06:00pm 13.7 5.6 1.0 42 5.4 SSW 33 61 18 33 1019.1 1019.1 0.0
19/05:37pm 13.9 5.6 1.9 44 5.2 SSW 35 54 19 29 1018.9 1018.9 0.0
19/05:30pm 13.8 4.5 3.0 48 4.8 SSW 41 54 22 29 1018.7 1018.7 0.0
19/05:00pm 14.0 6.1 1.3 42 5.4 SSW 32 52 17 28 1018.1 1018.1 0.0
19/04:54pm 14.0 6.1 1.0 41 5.6 SSW 32 52 17 28 1018.0 1018.0 0.0
19/04:30pm 14.5 5.6 0.7 39 5.9 SSW 37 54 20 29 1017.7 1017.7 0.0
19/04:00pm 14.8 6.5 2.0 42 5.6 SSW 35 50 19 27 1017.2 1017.2 0.0
19/03:45pm 15.5 6.8 2.0 40 6.0 SSW 37 56 20 30 1017.1 1017.1 0.0
19/03:30pm 15.1 6.4 2.0 41 5.8 SSW 37 50 20 27 1016.9 1016.9 0.0
19/03:12pm 15.2 7.3 2.4 42 5.7 SSW 33 52 18 28 1016.7 1016.7 0.0
19/03:00pm 15.3 6.6 2.1 41 5.8 S 37 50 20 27 1016.6 1016.6 0.0
19/02:30pm 15.5 7.7 2.0 40 6.0 SSW 32 50 17 27 1016.4 1016.4 0.0
19/02:28pm 15.6 8.0 3.1 43 5.7 S 32 50 17 27 1016.4 1016.4 0.0
19/02:14pm 14.9 6.1 1.1 39 6.0 SSW 37 50 20 27 1016.4 1016.4 0.0
19/02:00pm 16.1 7.3 -1.5 30 7.3 SW 35 50 19 27 1016.3 1016.3 0.0
19/01:30pm 16.1 7.9 -1.0 31 7.1 SW 32 41 17 22 1016.2 1016.2 0.0
19/01:11pm 15.5 7.6 -1.5 31 7.0 SW 30 50 16 27 1016.3 1016.3 0.0
19/01:00pm 15.5 7.2 -1.5 31 7.0 SW 32 41 17 22 1016.2 1016.2 0.0
19/12:30pm 15.3 6.8 -1.7 31 6.9 SW 33 52 18 28 1016.3 1016.3 0.0
19/12:17pm 15.4 7.2 -1.2 32 6.9 SW 32 50 17 27 1016.4 1016.4 0.0
19/12:00pm 15.2 6.4 -1.4 32 6.8 SW 35 46 19 25 1016.5 1016.5 0.0
19/11:30am 15.0 6.1 -2.0 31 6.9 SW 35 56 19 30 1016.8 1016.8 0.0
19/11:07am 14.6 6.1 -1.9 32 6.7 SW 33 52 18 28 1016.8 1016.8 0.0
19/11:00am 14.2 4.6 -1.8 33 6.4 SW 39 52 21 28 1016.8 1016.8 0.0
19/10:34am 14.2 5.4 -1.4 34 6.3 SW 35 56 19 30 1016.9 1016.9 0.0
19/10:30am 14.1 5.8 -1.9 33 6.4 SW 32 48 17 26 1016.9 1016.9 0.0
19/10:00am 14.0 5.7 -1.6 34 6.3 SW 32 44 17 24 1016.8 1016.8 0.0
19/09:43am 13.2 4.6 -2.7 33 6.2 SW 33 54 18 29 1016.6 1016.6 0.0
19/09:30am 13.2 5.2 -2.7 33 6.2 WSW 30 41 16 22 1016.8 1016.8 0.0
19/09:00am 12.0 4.3 -0.2 43 5.0 W 30 37 16 20 1016.5 1016.5 0.0
19/08:30am 11.3 4.0 -0.2 45 4.7 WNW 28 37 15 20 1016.2 1016.2 0.0
19/08:00am 10.3 2.6 0.1 49 4.1 WNW 30 39 16 21 1016.0 1016.0 0.0
19/07:30am 9.5 1.8 0.1 52 3.8 WNW 30 37 16 20 1015.7 1015.7 0.0
19/07:00am 8.9 2.0 -0.1 53 3.6 WNW 26 33 14 18 1015.6 1015.6 0.0
19/06:30am 8.2 1.3 0.0 56 3.2 WNW 26 33 14 18 1015.3 1015.3 0.0
19/06:00am 8.2 0.9 0.0 56 3.2 WNW 28 35 15 19 1014.9 1014.9 0.0
19/05:30am 7.9 2.1 0.2 58 3.0 W 20 28 11 15 1014.5 1014.5 0.0
19/05:00am 8.2 2.4 0.0 56 3.2 W 20 26 11 14 1014.0 1014.0 0.0
19/04:30am 8.8 2.3 0.0 54 3.5 WNW 24 30 13 16 1013.6 1013.6 0.0
19/04:00am 8.5 2.3 0.0 55 3.4 WNW 22 28 12 15 1013.5 1013.5 0.0
19/03:30am 8.6 2.5 0.3 56 3.3 WNW 22 30 12 16 1013.2 1013.2 0.0
19/03:00am 9.2 2.7 0.4 54 3.5 WNW 24 30 13 16 1013.3 1013.3 0.0
19/02:30am 8.8 2.6 0.0 54 3.5 WNW 22 26 12 14 1013.3 1013.3 0.0
19/02:00am 10.3 4.1 -0.2 48 4.2 W 22 30 12 16 1013.2 1013.2 0.0
19/01:30am 10.3 5.5 0.1 49 4.1 W 15 26 8 14 1013.4 1013.4 0.0
19/01:00am 10.9 3.6 0.3 48 4.3 WNW 28 39 15 21 1012.9 1012.9 0.0
19/12:30am 10.6 3.3 0.3 49 4.2 WNW 28 37 15 20 1012.6 1012.6 0.0
19/12:00am 11.2 3.0 0.3 47 4.5 WNW 33 46 18 25 1012.6 1012.6 0.0
 
Date/Time
EST
Temp
°C
App
Temp
°C
Dew
Point
°C
Rel
Hum
%
Delta-T
°C
Wind Press
QNH
hPa
Press
MSL
hPa
Rain since
9am
mm
Dir  Spd
km/h
Gust
km/h
Spd
kts
Gust
kts
18/11:39pm 11.1 3.4 0.2 47 4.4 WNW 30 48 16 26 1012.6 1012.6 0.0
18/11:30pm 11.6 3.4 0.4 46 4.6 WNW 33 46 18 25 1012.5 1012.5 0.0
18/11:00pm 11.1 3.5 0.5 48 4.4 WNW 30 50 16 27 1012.8 1012.8 0.0
18/10:54pm 11.0 3.8 0.7 49 4.2 WNW 28 50 15 27 1012.7 1012.7 0.0
18/10:30pm 10.4 4.8 1.0 52 3.9 WNW 20 28 11 15 1012.9 1012.9 0.0
18/10:00pm 10.3 4.7 0.9 52 3.9 WNW 20 28 11 15 1013.1 1013.1 0.0
18/09:30pm 10.7 3.5 1.0 51 4.0 WNW 28 32 15 17 1013.0 1013.0 0.0
18/09:00pm 9.8 4.8 1.2 55 3.5 WNW 17 19 9 10 1013.2 1013.2 0.0
18/08:30pm 11.0 5.6 1.0 50 4.2 W 19 28 10 15 1013.1 1013.1 0.0
18/08:00pm 11.7 5.3 1.1 48 4.4 W 24 33 13 18 1012.8 1012.8 0.0
18/07:30pm 12.0 6.0 1.1 47 4.6 W 22 35 12 19 1012.6 1012.6 0.0
18/07:00pm 12.7 4.7 0.5 43 5.1 W 32 44 17 24 1012.2 1012.2 0.0
18/06:30pm 13.4 5.2 0.1 40 5.5 W 33 54 18 29 1011.7 1011.7 0.0
18/06:00pm 13.6 4.2 -0.1 39 5.7 WNW 39 63 21 34 1010.9 1010.8 0.0
18/05:32pm 14.0 3.7 -0.8 36 6.1 WNW 43 61 23 33 1010.5 1010.4 0.0
18/05:30pm 14.2 3.8 -0.6 36 6.1 WNW 44 61 24 33 1010.3 1010.2 0.0
18/05:00pm 14.9 3.3 -0.8 34 6.5 WNW 50 70 27 38 1009.6 1009.5 0.0
18/04:30pm 16.1 6.6 -1.0 31 7.1 W 39 65 21 35 1009.2 1009.1 0.0
18/04:13pm 16.2 6.1 -2.3 28 7.5 W 41 61 22 33 1008.7 1008.6 0.0
18/04:11pm 16.3 6.3 -1.7 29 7.4 W 41 63 22 34 1008.8 1008.7 0.0
18/04:00pm 16.3 3.4 -2.2 28 7.6 W 56 80 30 43 1008.5 1008.4 0.0
18/03:46pm 16.8 4.6 -2.3 27 7.8 W 52 82 28 44 1007.9 1007.9 0.0
18/03:30pm 17.2 5.9 -1.4 28 7.8 W 48 74 26 40 1007.9 1007.9 0.0
18/03:00pm 17.3 4.7 -2.4 26 8.1 W 54 83 29 45 1007.6 1007.6 0.0
18/02:30pm 17.4 5.5 -2.8 25 8.2 W 50 74 27 40 1007.7 1007.7 0.0
18/02:00pm 17.7 5.5 -2.5 25 8.3 W 52 78 28 42 1007.5 1007.5 0.0
18/01:30pm 17.9 5.3 -2.4 25 8.4 W 54 74 29 40 1007.7 1007.7 0.0
18/01:00pm 17.9 5.3 -2.4 25 8.4 W 54 76 29 41 1008.1 1008.1 0.0
18/12:30pm 17.5 5.4 -1.7 27 8.0 W 52 78 28 42 1008.2 1008.2 0.0
18/12:22pm 17.3 5.1 -2.4 26 8.1 WNW 52 78 28 42 1008.3 1008.3 0.0
18/12:00pm 17.8 7.4 -1.9 26 8.2 W 43 67 23 36 1008.3 1008.3 0.0
18/11:30am 17.5 5.0 -2.2 26 8.1 WNW 54 72 29 39 1008.7 1008.6 0.0
18/11:26am 17.5 5.4 -1.7 27 8.0 WNW 52 70 28 38 1008.9 1008.8 0.0
18/11:10am 17.7 6.1 -1.0 28 7.9 WNW 50 65 27 35 1009.1 1009.0 0.0
18/11:00am 17.6 7.7 -0.6 29 7.8 W 41 56 22 30 1009.3 1009.2 0.0
18/10:36am 18.0 8.8 1.1 32 7.5 W 39 57 21 31 1009.5 1009.4 0.0
18/10:30am 17.4 7.3 0.6 32 7.3 WNW 43 57 23 31 1009.5 1009.4 0.0
18/10:17am 17.2 7.6 1.2 34 7.1 W 41 59 22 32 1009.5 1009.4 0.0
18/10:00am 16.8 6.8 0.9 34 7.0 W 43 59 23 32 1009.7 1009.6 0.0
18/09:30am 16.3 7.2 1.6 37 6.5 WNW 39 57 21 31 1009.9 1009.8 0.0
18/09:00am 15.7 6.1 1.4 38 6.3 WNW 41 54 22 29 1010.1 1010.0 0.0
18/08:40am 15.5 7.7 2.0 40 6.0 W 32 50 17 27 1010.5 1010.4 0.0
18/08:30am 14.8 6.7 1.3 40 5.8 W 33 50 18 27 1010.5 1010.4 0.0
18/08:25am 15.0 7.9 1.2 39 6.0 WNW 28 50 15 27 1010.5 1010.4 0.0
18/08:00am 13.9 8.5 2.2 45 5.1 WNW 20 28 11 15 1010.5 1010.4 0.0
18/07:30am 13.1 8.3 2.4 48 4.7 W 17 33 9 18 1010.1 1010.0 0.0
18/07:00am 12.9 7.4 1.6 46 4.9 W 20 28 11 15 1010.0 1009.9 0.0
18/06:30am 12.3 6.6 0.4 44 4.9 W 20 30 11 16 1009.9 1009.8 0.0
18/06:00am 12.5 6.8 0.6 44 5.0 WNW 20 26 11 14 1009.2 1009.1 0.0
18/05:30am 11.2 6.2 1.2 50 4.2 WNW 17 22 9 12 1008.5 1008.4 0.0
18/05:00am 10.7 5.6 1.0 51 4.0 WNW 17 19 9 10 1008.3 1008.3 0.0
18/04:30am 10.1 5.4 1.0 53 3.7 WNW 15 17 8 9 1008.1 1008.1 0.0
18/04:00am 11.4 5.9 0.5 47 4.5 NW 19 22 10 12 1007.9 1007.9 0.0
18/03:30am 10.9 5.8 0.6 49 4.2 NW 17 19 9 10 1008.0 1008.0 0.0
18/03:00am 11.8 6.3 0.9 47 4.6 WNW 19 24 10 13 1008.2 1008.2 0.0
18/02:30am 11.4 6.7 0.8 48 4.4 WNW 15 17 8 9 1008.6 1008.5 0.0
18/02:00am 12.9 7.1 0.0 41 5.3 WNW 20 26 11 14 1008.7 1008.6 0.0
18/01:30am 14.0 7.4 -0.4 37 6.0 WNW 24 32 13 17 1008.7 1008.6 0.0
18/01:00am 14.4 7.4 -0.5 36 6.2 WNW 26 33 14 18 1009.0 1008.9 0.0
18/12:30am 15.1 8.1 -0.2 35 6.4 WNW 26 33 14 18 1008.9 1008.8 0.0
18/12:00am 14.1 8.4 0.4 39 5.8 WNW 20 26 11 14 1008.9 1008.8 0.0
 
Date/Time
EST
Temp
°C
App
Temp
°C
Dew
Point
°C
Rel
Hum
%
Delta-T
°C
Wind Press
QNH
hPa
Press
MSL
hPa
Rain since
9am
mm
Dir  Spd
km/h
Gust
km/h
Spd
kts
Gust
kts
17/11:30pm 12.6 7.5 1.0 45 4.9 WNW 17 24 9 13 1008.9 1008.8 0.0
17/11:00pm 12.2 7.9 1.2 47 4.7 WNW 13 15 7 8 1009.0 1008.9 0.0
17/10:30pm 13.2 8.5 0.9 43 5.2 WNW 15 17 8 9 1009.2 1009.1 0.0
17/10:00pm 15.5 9.7 0.1 35 6.6 WNW 20 26 11 14 1009.2 1009.1 0.0
17/09:30pm 15.9 9.8 0.1 34 6.7 WNW 22 26 12 14 1009.2 1009.1 0.0
17/09:00pm 16.3 10.5 0.0 33 7.0 WNW 20 26 11 14 1009.2 1009.1 0.0
17/08:30pm 16.6 10.8 -0.1 32 7.1 WNW 20 26 11 14 1009.0 1008.9 0.0
17/08:00pm 16.9 11.3 -0.3 31 7.4 WNW 19 28 10 15 1008.8 1008.7 0.0

Other Formats:

Comma delimited format used in spreadsheet applications
http://www.bom.gov.au/fwo/IDN60801/IDN60801.94776.axf

JavaScript Object Notation format (JSON) in row-major order
http://www.bom.gov.au/fwo/IDN60801/IDN60801.94776.json